createdAt,value
2017-09-27T00:01:00.459Z,40.80
2017-09-27T00:03:27.920Z,40.40
2017-09-27T00:05:55.361Z,40.60
2017-09-27T00:08:22.783Z,41.10
2017-09-27T00:10:50.228Z,40.80
2017-09-27T00:13:18.661Z,41.00
2017-09-27T00:15:46.096Z,40.90
2017-09-27T00:18:13.524Z,41.00
2017-09-27T00:20:40.960Z,40.80
2017-09-27T00:23:08.692Z,40.70
2017-09-27T00:25:36.120Z,40.80
2017-09-27T00:28:03.579Z,41.00
2017-09-27T00:30:31.162Z,41.30
2017-09-27T00:32:58.592Z,41.70
2017-09-27T00:35:26.029Z,41.70
2017-09-27T00:37:53.460Z,40.90
2017-09-27T00:40:20.910Z,40.90
2017-09-27T00:42:48.447Z,40.50
2017-09-27T00:45:15.912Z,40.70
2017-09-27T00:47:43.672Z,40.70
2017-09-27T00:50:11.308Z,40.10
2017-09-27T00:52:38.735Z,40.00
2017-09-27T00:55:06.927Z,39.90
2017-09-27T00:57:34.359Z,39.70
2017-09-27T01:00:01.876Z,39.90
2017-09-27T01:02:29.631Z,40.60
2017-09-27T01:04:57.101Z,40.90
2017-09-27T01:07:24.548Z,41.50
2017-09-27T01:09:51.980Z,40.30
2017-09-27T01:12:19.412Z,39.90
2017-09-27T01:14:46.919Z,40.70
2017-09-27T01:17:14.560Z,40.90
2017-09-27T01:19:41.978Z,41.60
2017-09-27T01:22:10.188Z,41.70
2017-09-27T01:24:37.609Z,41.60
2017-09-27T01:27:05.049Z,42.20
2017-09-27T01:29:32.576Z,42.10
2017-09-27T01:32:00.041Z,42.20
2017-09-27T01:34:27.484Z,42.20
2017-09-27T01:36:54.952Z,41.70
2017-09-27T01:39:22.371Z,42.40
2017-09-27T01:41:49.808Z,42.30
2017-09-27T01:44:17.249Z,43.20
2017-09-27T01:46:44.689Z,42.90
2017-09-27T01:49:12.232Z,42.70
2017-09-27T01:51:39.684Z,41.50
2017-09-27T01:54:07.133Z,39.60
2017-09-27T01:56:34.563Z,39.10
2017-09-27T01:59:02.056Z,39.10
2017-09-27T02:01:29.479Z,39.00
2017-09-27T02:03:56.910Z,38.90
2017-09-27T02:06:24.433Z,40.40
2017-09-27T02:08:52.071Z,39.90
2017-09-27T02:11:19.632Z,40.50
2017-09-27T02:13:47.077Z,40.20
2017-09-27T02:16:14.505Z,40.60
2017-09-27T02:18:42.013Z,41.10
2017-09-27T02:21:09.440Z,42.70
2017-09-27T02:23:36.933Z,42.80
2017-09-27T02:26:04.443Z,42.20
2017-09-27T02:28:32.063Z,42.20
2017-09-27T02:30:59.492Z,42.00
2017-09-27T02:33:27.056Z,42.50
2017-09-27T02:35:54.484Z,42.20
2017-09-27T02:38:21.970Z,41.50
2017-09-27T02:40:49.416Z,41.30
2017-09-27T02:43:16.844Z,42.60
2017-09-27T02:45:44.335Z,41.20
2017-09-27T02:48:11.966Z,40.90
2017-09-27T02:50:39.482Z,41.10
2017-09-27T02:53:07.024Z,40.70
2017-09-27T02:55:34.472Z,40.50
2017-09-27T02:58:02.227Z,40.60
2017-09-27T03:00:29.694Z,40.90
2017-09-27T03:02:57.139Z,41.20
2017-09-27T03:05:24.790Z,41.00
2017-09-27T03:07:52.370Z,41.30
2017-09-27T03:10:20.018Z,41.40
2017-09-27T03:12:47.589Z,41.60
2017-09-27T03:15:15.034Z,41.50
2017-09-27T03:17:42.468Z,41.60
2017-09-27T03:20:09.903Z,41.70
2017-09-27T03:22:37.332Z,41.60
2017-09-27T03:25:04.773Z,41.50
2017-09-27T03:27:32.225Z,41.50
2017-09-27T03:29:59.657Z,41.70
2017-09-27T03:32:27.134Z,42.40
2017-09-27T03:34:54.549Z,42.50
2017-09-27T03:37:23.071Z,41.70
2017-09-27T03:39:50.517Z,41.70
2017-09-27T03:42:17.984Z,42.00
2017-09-27T03:44:45.431Z,42.50
2017-09-27T03:47:12.859Z,42.80
2017-09-27T03:49:40.351Z,42.30
2017-09-27T03:52:08.113Z,42.40
2017-09-27T03:54:35.744Z,42.70
2017-09-27T03:57:03.305Z,42.80
2017-09-27T03:59:30.732Z,42.50
2017-09-27T04:01:58.167Z,42.10
2017-09-27T04:04:25.702Z,42.10
2017-09-27T04:06:53.135Z,42.70
2017-09-27T04:09:20.613Z,42.70
2017-09-27T04:11:48.067Z,42.60
2017-09-27T04:14:15.527Z,42.30
2017-09-27T04:16:43.166Z,42.60
2017-09-27T04:19:10.753Z,42.60
2017-09-27T04:21:38.178Z,41.70
2017-09-27T04:24:05.607Z,40.90
2017-09-27T04:26:33.044Z,40.80
2017-09-27T04:29:00.482Z,42.40
2017-09-27T04:31:27.906Z,44.60
2017-09-27T04:33:55.492Z,45.30
2017-09-27T04:36:22.920Z,45.40
2017-09-27T04:38:50.354Z,45.20
2017-09-27T04:41:17.776Z,45.50
2017-09-27T04:43:45.207Z,45.20
2017-09-27T04:46:12.685Z,45.20
2017-09-27T04:48:40.138Z,45.40
2017-09-27T04:51:07.611Z,45.50
2017-09-27T04:53:35.046Z,46.50
2017-09-27T04:56:02.496Z,45.80
2017-09-27T04:58:30.081Z,46.10
2017-09-27T05:00:57.808Z,46.10
2017-09-27T05:03:25.258Z,46.70
2017-09-27T05:05:52.684Z,47.00
2017-09-27T05:08:20.128Z,47.00
2017-09-27T05:10:47.577Z,47.30
2017-09-27T05:13:15.008Z,48.60
2017-09-27T05:15:42.456Z,48.30
2017-09-27T05:18:09.925Z,48.00
2017-09-27T05:20:37.460Z,48.20
2017-09-27T05:23:05.100Z,48.70
2017-09-27T05:25:32.594Z,48.60
2017-09-27T05:28:00.136Z,48.70
2017-09-27T05:30:27.588Z,48.50
2017-09-27T05:32:55.007Z,48.00
2017-09-27T05:35:22.504Z,47.80
2017-09-27T05:37:49.953Z,48.00
2017-09-27T05:40:17.431Z,48.20
2017-09-27T05:42:45.179Z,48.10
2017-09-27T05:45:12.618Z,47.70
2017-09-27T05:47:40.926Z,47.10
2017-09-27T05:50:08.500Z,47.60
2017-09-27T05:52:36.235Z,47.00
2017-09-27T05:55:03.995Z,46.90
2017-09-27T05:57:31.456Z,46.90
2017-09-27T05:59:58.913Z,46.90
2017-09-27T06:02:26.341Z,46.90
2017-09-27T06:04:53.789Z,46.90
2017-09-27T06:07:21.279Z,46.90
2017-09-27T06:09:48.729Z,46.90
2017-09-27T06:12:16.164Z,46.60
2017-09-27T06:14:43.617Z,46.70
2017-09-27T06:17:11.112Z,46.80
2017-09-27T06:19:38.867Z,46.50
2017-09-27T06:22:06.329Z,46.40
2017-09-27T06:24:33.770Z,47.00
2017-09-27T06:27:01.230Z,47.00
2017-09-27T06:29:28.726Z,47.00
2017-09-27T06:31:56.331Z,47.00
2017-09-27T06:34:23.919Z,46.80
2017-09-27T06:36:51.676Z,46.10
2017-09-27T06:39:19.184Z,46.30
2017-09-27T06:41:46.798Z,46.50
2017-09-27T06:44:14.936Z,47.10
2017-09-27T06:46:42.378Z,46.90
2017-09-27T06:49:09.868Z,46.70
2017-09-27T06:51:37.308Z,46.70
2017-09-27T06:54:04.737Z,47.00
2017-09-27T06:56:32.946Z,47.10
2017-09-27T06:59:00.427Z,47.10
2017-09-27T07:01:28.073Z,47.00
2017-09-27T07:03:55.495Z,46.80
2017-09-27T07:06:22.931Z,46.30
2017-09-27T07:08:50.356Z,46.00
2017-09-27T07:11:17.915Z,46.50
2017-09-27T07:13:45.354Z,46.20
2017-09-27T07:16:12.797Z,46.70
2017-09-27T07:18:40.277Z,47.30
2017-09-27T07:21:07.721Z,46.30
2017-09-27T07:23:35.195Z,47.50
2017-09-27T07:26:02.651Z,47.10
2017-09-27T07:28:30.284Z,46.70
2017-09-27T07:30:57.855Z,46.30
2017-09-27T07:33:25.616Z,46.20
2017-09-27T07:35:53.087Z,45.70
2017-09-27T07:38:20.723Z,45.50
2017-09-27T07:40:48.303Z,46.10
2017-09-27T07:43:15.751Z,46.50
2017-09-27T07:45:43.723Z,46.60
2017-09-27T07:48:11.231Z,46.30
2017-09-27T07:50:39.527Z,45.90
2017-09-27T07:53:07.114Z,45.90
2017-09-27T07:55:34.557Z,48.80
2017-09-27T07:58:01.988Z,47.20
2017-09-27T08:00:29.416Z,46.50
2017-09-27T08:02:56.884Z,46.20
2017-09-27T08:05:24.325Z,46.80
2017-09-27T08:07:51.755Z,46.80
2017-09-27T08:10:19.183Z,47.50
2017-09-27T08:12:46.625Z,46.70
2017-09-27T08:15:14.813Z,47.40
2017-09-27T08:17:42.261Z,47.40
2017-09-27T08:20:09.684Z,48.00
2017-09-27T08:22:37.212Z,46.90
2017-09-27T08:25:04.967Z,46.80
2017-09-27T08:27:32.400Z,45.50
2017-09-27T08:29:59.835Z,45.00
2017-09-27T08:32:27.340Z,44.10
2017-09-27T08:34:54.770Z,43.10
2017-09-27T08:37:22.187Z,43.90
2017-09-27T08:39:49.629Z,43.90
2017-09-27T08:42:17.073Z,44.00
2017-09-27T08:44:44.581Z,44.20
2017-09-27T08:47:12.009Z,44.20
2017-09-27T08:49:39.594Z,44.80
2017-09-27T08:52:07.201Z,44.50
2017-09-27T08:54:34.751Z,43.50
2017-09-27T08:57:02.187Z,45.80
2017-09-27T08:59:29.639Z,44.90
2017-09-27T09:01:57.123Z,43.50
2017-09-27T09:04:24.551Z,42.40
2017-09-27T09:06:51.971Z,41.70
2017-09-27T09:09:19.487Z,41.80
2017-09-27T09:11:46.903Z,41.40
2017-09-27T09:14:14.343Z,41.40
2017-09-27T09:16:41.855Z,41.50
2017-09-27T09:19:09.286Z,41.40
2017-09-27T09:21:36.726Z,39.40
2017-09-27T09:24:04.232Z,39.50
2017-09-27T09:26:31.735Z,39.80
2017-09-27T09:28:59.151Z,39.60
2017-09-27T09:31:26.801Z,38.60
2017-09-27T09:33:54.237Z,39.30
2017-09-27T09:36:21.829Z,39.10
2017-09-27T09:38:49.479Z,38.40
2017-09-27T09:41:17.035Z,38.30
2017-09-27T09:43:44.461Z,36.40
2017-09-27T09:46:11.899Z,35.70
2017-09-27T09:48:39.332Z,35.10
2017-09-27T09:51:06.869Z,36.10
2017-09-27T09:53:35.687Z,35.00
2017-09-27T09:56:03.219Z,34.20
2017-09-27T09:58:30.667Z,32.60
2017-09-27T10:00:58.127Z,32.20
2017-09-27T10:03:25.675Z,32.40
2017-09-27T10:05:53.112Z,32.40
2017-09-27T10:08:21.516Z,32.20
2017-09-27T10:10:48.940Z,32.20
2017-09-27T10:13:16.376Z,32.30
2017-09-27T10:15:43.799Z,33.00
2017-09-27T10:18:11.238Z,31.00
2017-09-27T10:20:38.733Z,33.10
2017-09-27T10:23:06.196Z,32.00
2017-09-27T10:25:33.623Z,28.80
2017-09-27T10:28:01.051Z,28.00
2017-09-27T10:30:28.491Z,27.70
2017-09-27T10:32:55.919Z,28.70
2017-09-27T10:35:24.122Z,28.40
2017-09-27T10:37:51.583Z,28.50
2017-09-27T10:40:18.999Z,27.20
2017-09-27T10:42:46.464Z,28.80
2017-09-27T10:45:13.892Z,28.10
2017-09-27T10:47:41.363Z,27.60
2017-09-27T10:50:08.792Z,27.40
2017-09-27T10:52:36.219Z,24.60
2017-09-27T10:55:03.647Z,26.50
2017-09-27T10:57:31.844Z,28.20
2017-09-27T10:59:59.276Z,28.10
2017-09-27T11:02:26.708Z,25.50
2017-09-27T11:04:54.149Z,27.40
2017-09-27T11:07:21.575Z,26.70
2017-09-27T11:09:49.018Z,24.10
2017-09-27T11:12:17.231Z,23.50
2017-09-27T11:14:44.670Z,23.50
2017-09-27T11:17:12.099Z,24.20
2017-09-27T11:19:39.654Z,24.70
2017-09-27T11:22:07.080Z,24.90
2017-09-27T11:24:34.531Z,24.60
2017-09-27T11:27:01.948Z,23.60
2017-09-27T11:29:29.423Z,24.20
2017-09-27T11:31:56.880Z,24.00
2017-09-27T11:34:24.321Z,25.00
2017-09-27T11:36:51.748Z,23.00
2017-09-27T11:39:19.189Z,19.80
2017-09-27T11:41:46.619Z,21.60
2017-09-27T11:44:14.049Z,23.70
2017-09-27T11:46:41.569Z,23.20
2017-09-27T11:49:08.993Z,22.60
2017-09-27T11:51:36.423Z,22.10
2017-09-27T11:54:03.847Z,21.40
2017-09-27T11:56:31.372Z,17.90
2017-09-27T11:58:58.932Z,18.70
2017-09-27T12:01:26.412Z,19.80
2017-09-27T12:03:53.831Z,20.30
2017-09-27T12:06:21.261Z,16.20
2017-09-27T12:08:48.717Z,15.60
2017-09-27T12:11:16.205Z,14.40
2017-09-27T12:13:43.633Z,16.00
2017-09-27T12:16:11.212Z,16.80
2017-09-27T12:18:38.639Z,13.90
2017-09-27T12:21:06.074Z,15.10
2017-09-27T12:23:33.501Z,15.40
2017-09-27T12:26:00.932Z,18.00
2017-09-27T12:28:28.360Z,18.70
2017-09-27T12:30:55.918Z,15.40
2017-09-27T12:33:23.579Z,16.80
2017-09-27T12:35:51.015Z,14.00
2017-09-27T12:38:18.515Z,15.90
2017-09-27T12:40:46.050Z,14.70
2017-09-27T12:43:13.636Z,15.20
2017-09-27T12:45:41.070Z,14.60
2017-09-27T12:48:08.636Z,14.70
2017-09-27T12:50:36.059Z,13.90
2017-09-27T12:53:03.494Z,12.00
2017-09-27T12:55:30.940Z,11.10
2017-09-27T12:57:58.563Z,9.90
2017-09-27T13:00:25.991Z,10.50
2017-09-27T13:02:53.684Z,8.00
2017-09-27T13:05:21.140Z,6.10
2017-09-27T13:07:48.582Z,3.10
2017-09-27T13:10:15.995Z,2.90
2017-09-27T13:12:43.504Z,1.10
2017-09-27T13:15:10.956Z,1.00
2017-09-27T13:17:38.420Z,1.00
2017-09-27T13:20:05.872Z,1.00
2017-09-27T13:22:33.324Z,1.00
2017-09-27T13:25:00.778Z,1.00
2017-09-27T13:27:28.233Z,1.00
2017-09-27T13:29:55.692Z,1.00
2017-09-27T13:32:23.148Z,1.00
2017-09-27T13:34:50.598Z,1.00
2017-09-27T13:37:18.065Z,1.00
2017-09-27T13:39:45.881Z,1.00
2017-09-27T13:42:13.467Z,1.00
2017-09-27T13:44:40.958Z,1.00
2017-09-27T13:47:08.395Z,1.00
2017-09-27T13:49:35.877Z,1.00
2017-09-27T13:52:03.315Z,1.00
2017-09-27T13:54:30.870Z,1.00
2017-09-27T13:56:58.291Z,1.00
2017-09-27T13:59:26.760Z,1.00
2017-09-27T14:01:54.380Z,1.00
2017-09-27T14:04:21.920Z,1.00
2017-09-27T14:06:49.378Z,1.20
2017-09-27T14:09:16.873Z,1.70
2017-09-27T14:11:44.613Z,2.20
2017-09-27T14:14:12.256Z,2.40
2017-09-27T14:16:39.721Z,4.30
2017-09-27T14:19:07.224Z,3.40
2017-09-27T14:21:34.745Z,1.00
2017-09-27T14:24:02.394Z,1.60
2017-09-27T14:26:29.956Z,1.50
2017-09-27T14:28:57.413Z,2.40
2017-09-27T14:31:24.837Z,1.90
2017-09-27T14:33:52.313Z,2.50
2017-09-27T14:36:19.737Z,2.20
2017-09-27T14:38:47.227Z,3.30
2017-09-27T14:41:14.692Z,2.40
2017-09-27T14:43:42.103Z,3.00
2017-09-27T14:46:10.593Z,4.50
2017-09-27T14:48:38.284Z,4.40
2017-09-27T14:51:05.724Z,4.70
2017-09-27T14:53:33.139Z,4.10
2017-09-27T14:56:01.582Z,3.20
2017-09-27T14:58:28.979Z,4.70
2017-09-27T15:00:56.407Z,4.90
2017-09-27T15:03:23.946Z,3.10
2017-09-27T15:05:51.668Z,3.30
2017-09-27T15:08:19.079Z,3.30
2017-09-27T15:10:46.535Z,3.00
2017-09-27T15:13:13.972Z,3.40
2017-09-27T15:15:41.407Z,4.10
2017-09-27T15:18:08.832Z,4.30
2017-09-27T15:20:37.053Z,4.10
2017-09-27T15:23:04.466Z,4.10
2017-09-27T15:25:31.909Z,4.20
2017-09-27T15:27:59.432Z,4.00
2017-09-27T15:30:26.864Z,3.20
2017-09-27T15:32:54.300Z,4.20
2017-09-27T15:35:22.508Z,4.70
2017-09-27T15:37:49.933Z,4.60
2017-09-27T15:40:17.603Z,4.20
2017-09-27T15:42:45.084Z,5.00
2017-09-27T15:45:12.504Z,4.40
2017-09-27T15:47:39.936Z,4.60
2017-09-27T15:50:07.360Z,4.60
2017-09-27T15:52:34.804Z,4.60
2017-09-27T15:55:02.217Z,4.70
2017-09-27T15:57:30.408Z,5.80
2017-09-27T15:59:58.760Z,5.80
2017-09-27T16:02:26.247Z,6.40
2017-09-27T16:04:53.662Z,6.80
2017-09-27T16:07:21.076Z,6.90
2017-09-27T16:09:48.483Z,8.10
2017-09-27T16:12:16.681Z,9.10
2017-09-27T16:14:44.197Z,9.00
2017-09-27T16:17:11.596Z,9.80
2017-09-27T16:19:39.052Z,10.30
2017-09-27T16:22:06.537Z,9.60
2017-09-27T16:24:33.965Z,8.70
2017-09-27T16:27:01.449Z,10.50
2017-09-27T16:29:28.905Z,8.90
2017-09-27T16:31:56.417Z,10.30
2017-09-27T16:34:24.032Z,10.20
2017-09-27T16:36:51.585Z,10.20
2017-09-27T16:39:19.008Z,11.50
2017-09-27T16:41:46.465Z,12.70
2017-09-27T16:44:13.892Z,12.50
2017-09-27T16:46:41.339Z,12.70
2017-09-27T16:49:08.743Z,13.10
2017-09-27T16:51:36.320Z,15.00
2017-09-27T16:54:03.952Z,14.40
2017-09-27T16:56:31.368Z,14.80
2017-09-27T16:58:58.813Z,15.10
2017-09-27T17:01:26.457Z,15.60
2017-09-27T17:03:54.108Z,16.10
2017-09-27T17:06:21.673Z,17.00
2017-09-27T17:08:49.103Z,16.80
2017-09-27T17:11:16.589Z,16.90
2017-09-27T17:13:44.040Z,17.00
2017-09-27T17:16:11.460Z,17.00
2017-09-27T17:18:38.951Z,17.10
2017-09-27T17:21:06.584Z,17.30
2017-09-27T17:23:34.178Z,17.00
2017-09-27T17:26:01.934Z,18.30
2017-09-27T17:28:29.351Z,18.50
2017-09-27T17:30:57.661Z,18.50
2017-09-27T17:33:25.133Z,18.50
2017-09-27T17:35:52.568Z,18.60
2017-09-27T17:38:20.136Z,18.80
2017-09-27T17:40:47.595Z,19.00
2017-09-27T17:43:15.052Z,19.20
2017-09-27T17:45:42.520Z,19.90
2017-09-27T17:48:09.944Z,19.80
2017-09-27T17:50:37.415Z,20.10
2017-09-27T17:53:04.829Z,20.70
2017-09-27T17:55:32.268Z,20.40
2017-09-27T17:57:59.790Z,20.70
2017-09-27T18:00:27.216Z,21.00
2017-09-27T18:02:54.697Z,21.00
2017-09-27T18:05:27.667Z,21.20
2017-09-27T18:11:02.087Z,21.80
2017-09-27T18:13:35.843Z,22.50
2017-09-27T18:16:09.167Z,22.50
2017-09-27T18:18:46.491Z,23.00
2017-09-27T18:21:14.117Z,22.90
2017-09-27T18:23:41.535Z,23.20
2017-09-27T18:26:08.963Z,23.80
2017-09-27T18:28:36.448Z,23.80
2017-09-27T18:31:03.993Z,23.70
2017-09-27T18:33:31.517Z,24.00
2017-09-27T18:35:59.102Z,24.30
2017-09-27T18:38:26.536Z,24.30
2017-09-27T18:40:55.048Z,23.30
2017-09-27T18:43:22.816Z,24.50
2017-09-27T18:45:50.264Z,25.60
2017-09-27T18:48:17.688Z,25.50
2017-09-27T18:50:45.140Z,25.70
2017-09-27T18:53:13.471Z,24.80
2017-09-27T18:55:41.021Z,24.90
2017-09-27T18:58:08.476Z,24.80
2017-09-27T19:00:35.940Z,24.80
2017-09-27T19:03:03.581Z,25.00
2017-09-27T19:05:31.152Z,25.10
2017-09-27T19:07:58.583Z,25.10
2017-09-27T19:10:26.016Z,25.00
2017-09-27T19:12:53.523Z,25.00
2017-09-27T19:15:20.947Z,25.20
2017-09-27T19:17:48.440Z,25.70
2017-09-27T19:20:16.089Z,26.20
2017-09-27T19:22:43.649Z,26.10
2017-09-27T19:25:11.997Z,26.50
2017-09-27T19:27:39.415Z,26.50
2017-09-27T19:30:06.939Z,26.60
2017-09-27T19:32:34.385Z,27.00
2017-09-27T19:35:01.827Z,27.00
2017-09-27T19:37:29.253Z,26.90
2017-09-27T19:39:56.763Z,26.90
2017-09-27T19:42:24.221Z,27.50
2017-09-27T19:44:51.666Z,28.00
2017-09-27T19:47:19.083Z,28.40
2017-09-27T19:49:46.520Z,27.70
2017-09-27T19:52:14.055Z,27.50
2017-09-27T19:54:41.812Z,27.20
2017-09-27T19:57:09.265Z,27.80
2017-09-27T19:59:36.916Z,28.20
2017-09-27T20:02:04.388Z,28.80
2017-09-27T20:04:31.817Z,28.80
2017-09-27T20:06:59.400Z,30.20
2017-09-27T20:09:26.827Z,31.00
2017-09-27T20:11:54.272Z,31.90
2017-09-27T20:14:21.772Z,32.20
2017-09-27T20:16:49.227Z,32.60
2017-09-27T20:19:16.887Z,32.60
2017-09-27T20:21:44.414Z,32.10
2017-09-27T20:24:11.900Z,32.80
2017-09-27T20:26:39.360Z,32.80
2017-09-27T20:29:06.993Z,32.70
2017-09-27T20:31:34.473Z,33.50
2017-09-27T20:34:01.941Z,33.80
2017-09-27T20:36:29.367Z,34.00
2017-09-27T20:38:56.945Z,34.20
2017-09-27T20:41:24.380Z,34.30
2017-09-27T20:43:51.812Z,34.40
2017-09-27T20:46:19.245Z,34.20
2017-09-27T20:48:46.781Z,34.40
2017-09-27T20:51:14.432Z,34.90
2017-09-27T20:53:41.892Z,34.40
2017-09-27T20:56:09.368Z,34.00
2017-09-27T20:58:36.792Z,33.30
2017-09-27T21:01:04.226Z,33.30
2017-09-27T21:03:31.688Z,33.00
2017-09-27T21:05:59.169Z,32.50
2017-09-27T21:08:26.656Z,33.00
2017-09-27T21:10:54.950Z,32.50
2017-09-27T21:13:22.436Z,32.50
2017-09-27T21:15:49.863Z,32.70
2017-09-27T21:18:18.072Z,34.10
2017-09-27T21:20:45.541Z,33.90
2017-09-27T21:23:12.994Z,33.90
2017-09-27T21:25:40.408Z,35.00
2017-09-27T21:28:07.835Z,35.00
2017-09-27T21:30:35.273Z,35.60
2017-09-27T21:33:02.709Z,36.00
2017-09-27T21:35:30.184Z,35.50
2017-09-27T21:37:57.735Z,36.30
2017-09-27T21:40:25.153Z,36.10
2017-09-27T21:42:52.579Z,36.00
2017-09-27T21:45:20.047Z,36.10
2017-09-27T21:47:47.565Z,36.50
2017-09-27T21:50:15.199Z,36.50
2017-09-27T21:52:42.647Z,36.20
2017-09-27T21:55:10.085Z,36.30
2017-09-27T21:57:38.335Z,36.60
2017-09-27T22:00:05.781Z,36.60
2017-09-27T22:02:33.222Z,37.10
2017-09-27T22:05:00.660Z,38.00
2017-09-27T22:07:28.113Z,37.30
2017-09-27T22:09:55.593Z,37.30
2017-09-27T22:12:23.049Z,37.60
2017-09-27T22:14:50.813Z,37.50
2017-09-27T22:17:18.275Z,37.50
2017-09-27T22:19:45.704Z,37.90
2017-09-27T22:22:13.148Z,37.90
2017-09-27T22:24:40.586Z,38.20
2017-09-27T22:27:08.013Z,37.90
2017-09-27T22:29:35.549Z,38.00
2017-09-27T22:32:03.203Z,37.60
2017-09-27T22:34:30.644Z,37.90
2017-09-27T22:36:58.141Z,37.90
2017-09-27T22:39:25.672Z,38.20
2017-09-27T22:41:53.112Z,38.10
2017-09-27T22:44:20.531Z,38.20
2017-09-27T22:46:47.968Z,38.20
2017-09-27T22:49:15.410Z,37.90
2017-09-27T22:51:42.867Z,37.90
2017-09-27T22:54:10.288Z,38.00
2017-09-27T22:56:37.771Z,37.90
2017-09-27T22:59:05.241Z,38.00
2017-09-27T23:01:32.211Z,37.70
2017-09-27T23:03:59.194Z,37.20
2017-09-27T23:06:26.172Z,36.90
2017-09-27T23:08:53.915Z,37.50
2017-09-27T23:11:21.339Z,37.30
2017-09-27T23:13:48.776Z,37.00
2017-09-27T23:16:16.201Z,37.00
2017-09-27T23:18:43.758Z,37.00
2017-09-27T23:21:11.201Z,37.20
2017-09-27T23:23:38.636Z,37.00
2017-09-27T23:26:06.061Z,37.30
2017-09-27T23:28:33.497Z,37.80
2017-09-27T23:31:00.940Z,37.80
2017-09-27T23:33:28.499Z,38.10
2017-09-27T23:35:55.944Z,37.60
2017-09-27T23:38:23.380Z,37.80
2017-09-27T23:40:50.867Z,37.10
2017-09-27T23:43:18.298Z,38.30
2017-09-27T23:45:45.723Z,38.80
2017-09-27T23:48:13.162Z,38.80
2017-09-27T23:50:40.599Z,38.80
2017-09-27T23:53:08.030Z,38.50
2017-09-27T23:55:35.589Z,39.00
2017-09-27T23:58:03.020Z,39.00
